createdAt,value
2023-03-15T00:00:42.349Z,2.20
2023-03-15T00:03:14.797Z,1.70
2023-03-15T00:05:48.395Z,2.03
2023-03-15T00:08:21.790Z,1.60
2023-03-15T00:10:53.065Z,1.50
2023-03-15T00:13:24.470Z,1.20
2023-03-15T00:16:00.747Z,1.20
2023-03-15T00:18:32.460Z,1.10
2023-03-15T00:21:03.916Z,1.77
2023-03-15T00:23:35.184Z,1.20
2023-03-15T00:26:06.464Z,1.30
2023-03-15T00:28:38.423Z,1.43
2023-03-15T00:31:15.795Z,1.70
2023-03-15T00:33:48.004Z,1.90
2023-03-15T00:36:23.533Z,1.80
2023-03-15T00:38:56.080Z,1.50
2023-03-15T00:41:27.631Z,2.10
2023-03-15T00:43:58.881Z,1.70
2023-03-15T00:46:30.315Z,1.80
2023-03-15T00:49:01.668Z,2.90
2023-03-15T00:51:33.754Z,1.80
2023-03-15T00:54:05.047Z,2.30
2023-03-15T00:56:36.489Z,2.03
2023-03-15T00:59:08.535Z,2.00
2023-03-15T01:01:44.504Z,2.10
2023-03-15T01:04:15.792Z,2.10
2023-03-15T01:06:47.161Z,1.90
2023-03-15T01:09:18.454Z,2.00
2023-03-15T01:11:50.389Z,2.03
2023-03-15T01:14:21.811Z,3.03
2023-03-15T01:16:53.148Z,2.60
2023-03-15T01:19:24.771Z,2.53
2023-03-15T01:21:56.061Z,2.93
2023-03-15T01:24:27.332Z,2.23
2023-03-15T01:26:58.649Z,2.67
2023-03-15T01:29:29.918Z,2.40
2023-03-15T01:32:01.218Z,2.20
2023-03-15T01:34:32.500Z,1.87
2023-03-15T01:37:04.043Z,3.07
2023-03-15T01:39:35.316Z,1.77
2023-03-15T01:42:06.925Z,1.70
2023-03-15T01:44:59.922Z,1.70
2023-03-15T01:47:32.751Z,2.10
2023-03-15T01:50:11.433Z,2.00
2023-03-15T01:52:42.981Z,1.50
2023-03-15T01:55:19.448Z,1.67
2023-03-15T02:00:27.750Z,2.25
2023-03-15T02:03:04.237Z,1.90
2023-03-15T02:08:09.609Z,1.97
2023-03-15T02:10:44.362Z,2.10
2023-03-15T02:13:19.495Z,1.70
2023-03-15T02:15:53.490Z,2.27
2023-03-15T02:18:24.951Z,2.30
2023-03-15T02:21:13.260Z,2.10
2023-03-15T02:23:49.807Z,2.33
2023-03-15T02:26:28.183Z,3.30
2023-03-15T02:29:00.119Z,2.53
2023-03-15T02:31:37.879Z,2.20
2023-03-15T02:34:09.500Z,2.47
2023-03-15T02:36:40.822Z,2.47
2023-03-15T02:39:17.836Z,3.20
2023-03-15T02:41:59.298Z,2.80
2023-03-15T02:44:32.654Z,2.73
2023-03-15T02:47:16.459Z,2.67
2023-03-15T02:49:51.286Z,2.77
2023-03-15T02:52:23.145Z,2.40
2023-03-15T02:54:54.458Z,3.10
2023-03-15T02:57:25.851Z,2.87
2023-03-15T02:59:57.199Z,2.80
2023-03-15T03:02:28.739Z,2.60
2023-03-15T03:05:00.203Z,2.33
2023-03-15T03:07:31.494Z,2.70
2023-03-15T03:10:03.965Z,2.13
2023-03-15T03:12:35.308Z,2.50
2023-03-15T03:15:07.516Z,2.27
2023-03-15T03:17:38.904Z,2.97
2023-03-15T03:20:24.699Z,2.50
2023-03-15T03:22:56.015Z,2.70
2023-03-15T03:25:27.398Z,2.30
2023-03-15T03:27:59.137Z,2.77
2023-03-15T03:30:31.032Z,2.30
2023-03-15T03:33:02.583Z,2.87
2023-03-15T03:35:33.898Z,2.67
2023-03-15T03:38:05.188Z,2.73
2023-03-15T03:40:37.799Z,2.63
2023-03-15T03:43:09.773Z,3.00
2023-03-15T03:45:41.073Z,3.20
2023-03-15T03:48:12.363Z,2.13
2023-03-15T03:50:43.710Z,2.67
2023-03-15T03:53:15.057Z,2.67
2023-03-15T03:55:46.731Z,2.87
2023-03-15T03:58:18.179Z,2.50
2023-03-15T04:00:54.156Z,3.00
2023-03-15T04:03:28.610Z,2.70
2023-03-15T04:06:01.416Z,2.50
2023-03-15T04:08:33.145Z,2.60
2023-03-15T04:11:04.929Z,2.97
2023-03-15T04:13:36.354Z,2.97
2023-03-15T04:16:08.209Z,2.43
2023-03-15T04:18:40.189Z,2.47
2023-03-15T04:21:11.835Z,3.13
2023-03-15T04:23:43.105Z,2.50
2023-03-15T04:26:14.626Z,2.60
2023-03-15T04:28:46.068Z,2.70
2023-03-15T04:31:17.404Z,2.00
2023-03-15T04:33:48.728Z,3.20
2023-03-15T04:36:21.587Z,2.60
2023-03-15T04:39:04.204Z,2.87
2023-03-15T04:41:36.005Z,2.53
2023-03-15T04:44:07.403Z,2.30
2023-03-15T04:46:38.670Z,2.23
2023-03-15T04:49:10.249Z,2.13
2023-03-15T04:51:41.552Z,2.33
2023-03-15T04:54:12.821Z,2.23
2023-03-15T04:56:44.118Z,2.47
2023-03-15T04:59:15.472Z,2.10
2023-03-15T05:01:46.811Z,2.20
2023-03-15T05:04:18.155Z,2.27
2023-03-15T05:06:49.439Z,2.17
2023-03-15T05:09:21.914Z,2.30
2023-03-15T05:11:53.180Z,2.47
2023-03-15T05:14:24.540Z,2.50
2023-03-15T05:16:58.405Z,2.53
2023-03-15T05:19:30.021Z,2.50
2023-03-15T05:22:03.548Z,2.53
2023-03-15T05:24:34.864Z,2.70
2023-03-15T05:27:06.215Z,2.20
2023-03-15T05:29:37.617Z,2.30
2023-03-15T05:32:09.086Z,2.33
2023-03-15T05:34:40.370Z,2.97
2023-03-15T05:37:12.535Z,2.67
2023-03-15T05:39:43.814Z,2.60
2023-03-15T05:42:16.187Z,3.20
2023-03-15T05:44:48.336Z,3.23
2023-03-15T05:47:20.454Z,3.80
2023-03-15T05:49:52.389Z,3.27
2023-03-15T05:52:24.084Z,3.00
2023-03-15T05:54:55.371Z,3.20
2023-03-15T05:57:26.636Z,4.77
2023-03-15T05:59:57.983Z,3.40
2023-03-15T06:02:29.481Z,4.27
2023-03-15T06:05:00.780Z,3.30
2023-03-15T06:07:32.115Z,3.60
2023-03-15T06:10:03.863Z,3.93
2023-03-15T06:12:35.119Z,3.37
2023-03-15T06:15:07.272Z,3.73
2023-03-15T06:17:38.578Z,4.20
2023-03-15T06:20:10.560Z,4.70
2023-03-15T06:22:41.827Z,3.93
2023-03-15T06:25:13.097Z,3.90
2023-03-15T06:27:44.365Z,4.27
2023-03-15T06:30:17.158Z,3.40
2023-03-15T06:32:48.827Z,2.80
2023-03-15T06:35:20.930Z,3.63
2023-03-15T06:37:52.974Z,4.20
2023-03-15T06:40:24.257Z,3.50
2023-03-15T06:42:55.536Z,4.10
2023-03-15T06:45:27.062Z,3.20
2023-03-15T06:47:58.426Z,2.80
2023-03-15T06:50:44.234Z,3.53
2023-03-15T06:53:17.978Z,3.17
2023-03-15T06:55:50.648Z,2.73
2023-03-15T06:58:22.355Z,3.10
2023-03-15T07:00:53.677Z,2.70
2023-03-15T07:03:25.009Z,2.60
2023-03-15T07:05:56.319Z,2.70
2023-03-15T07:08:27.584Z,2.80
2023-03-15T07:10:58.950Z,2.10
2023-03-15T07:13:30.248Z,2.60
2023-03-15T07:16:01.647Z,2.00
2023-03-15T07:18:34.452Z,3.30
2023-03-15T07:21:07.485Z,2.40
2023-03-15T07:23:38.801Z,2.03
2023-03-15T07:26:10.070Z,2.63
2023-03-15T07:28:42.249Z,2.90
2023-03-15T07:31:13.918Z,1.53
2023-03-15T07:33:45.219Z,1.80
2023-03-15T07:36:16.483Z,2.03
2023-03-15T07:38:47.779Z,2.37
2023-03-15T07:41:19.084Z,1.90
2023-03-15T07:43:50.350Z,1.30
2023-03-15T07:46:21.747Z,1.87
2023-03-15T07:48:53.043Z,1.60
2023-03-15T07:51:24.515Z,2.57
2023-03-15T07:53:55.775Z,1.67
2023-03-15T07:56:27.080Z,1.67
2023-03-15T07:58:58.349Z,2.07
2023-03-15T08:01:29.652Z,1.70
2023-03-15T08:04:00.912Z,1.60
2023-03-15T08:06:32.199Z,1.50
2023-03-15T08:09:05.638Z,1.90
2023-03-15T08:11:37.237Z,2.20
2023-03-15T08:14:08.510Z,2.07
2023-03-15T08:16:39.889Z,2.13
2023-03-15T08:19:11.349Z,3.13
2023-03-15T08:21:45.363Z,2.13
2023-03-15T08:24:16.645Z,2.30
2023-03-15T08:26:48.334Z,2.10
2023-03-15T08:29:19.595Z,2.07
2023-03-15T08:31:50.921Z,2.60
2023-03-15T08:34:22.748Z,2.60
2023-03-15T08:36:54.041Z,2.23
2023-03-15T08:39:25.333Z,1.93
2023-03-15T08:41:56.648Z,2.17
2023-03-15T08:44:27.964Z,2.63
2023-03-15T08:46:59.354Z,1.67
2023-03-15T08:49:31.178Z,1.27
2023-03-15T08:52:02.617Z,1.47
2023-03-15T08:54:33.903Z,1.97
2023-03-15T08:57:05.197Z,1.50
2023-03-15T08:59:36.536Z,1.47
2023-03-15T09:02:11.324Z,2.07
2023-03-15T09:04:43.752Z,1.47
2023-03-15T09:07:15.648Z,2.40
2023-03-15T09:09:48.249Z,1.40
2023-03-15T09:12:21.027Z,1.40
2023-03-15T09:14:52.295Z,1.53
2023-03-15T09:17:23.538Z,1.20
2023-03-15T09:19:54.803Z,1.77
2023-03-15T09:22:38.635Z,1.13
2023-03-15T09:25:10.956Z,1.30
2023-03-15T09:27:42.231Z,1.20
2023-03-15T09:30:14.204Z,1.20
2023-03-15T09:32:46.159Z,1.50
2023-03-15T09:35:20.045Z,1.47
2023-03-15T09:37:51.374Z,2.30
2023-03-15T09:40:32.058Z,1.67
2023-03-15T09:43:18.905Z,1.33
2023-03-15T09:48:32.210Z,1.83
2023-03-15T09:51:18.715Z,1.40
2023-03-15T09:54:05.751Z,2.03
2023-03-15T09:57:09.410Z,4.17
2023-03-15T09:59:46.290Z,1.57
2023-03-15T10:02:24.503Z,2.37
2023-03-15T10:05:06.226Z,1.43
2023-03-15T10:07:38.008Z,1.70
2023-03-15T10:10:17.343Z,1.70
2023-03-15T10:13:26.157Z,1.47
2023-03-15T10:16:01.017Z,1.50
2023-03-15T10:18:47.155Z,1.43
2023-03-15T10:21:48.824Z,1.92
2023-03-15T10:24:26.990Z,2.70
2023-03-15T10:27:04.582Z,0.97
2023-03-15T10:29:36.539Z,1.67
2023-03-15T10:32:17.732Z,1.77
2023-03-15T10:34:54.392Z,1.27
2023-03-15T10:37:26.397Z,1.10
2023-03-15T10:39:59.072Z,1.03
2023-03-15T10:42:32.581Z,1.70
2023-03-15T10:45:25.024Z,1.03
2023-03-15T10:48:00.588Z,3.43
2023-03-15T10:50:33.470Z,1.10
2023-03-15T10:53:11.104Z,1.70
2023-03-15T10:55:46.320Z,2.20
2023-03-15T10:58:27.392Z,1.50
2023-03-15T11:01:08.178Z,1.57
2023-03-15T11:03:41.405Z,1.27
2023-03-15T11:06:21.860Z,1.63
2023-03-15T11:08:53.260Z,1.50
2023-03-15T11:11:24.591Z,1.73
2023-03-15T11:14:02.922Z,1.00
2023-03-15T11:16:35.579Z,1.20
2023-03-15T11:19:15.964Z,1.20
2023-03-15T11:21:49.652Z,0.90
2023-03-15T11:24:27.876Z,1.20
2023-03-15T11:27:02.001Z,1.47
2023-03-15T11:29:35.474Z,1.43
2023-03-15T11:32:20.578Z,2.10
2023-03-15T11:35:04.603Z,0.87
2023-03-15T11:38:03.149Z,1.43
2023-03-15T11:40:45.254Z,1.67
2023-03-15T11:43:51.855Z,1.60
2023-03-15T11:46:29.231Z,1.70
2023-03-15T11:49:10.694Z,1.07
2023-03-15T11:51:42.067Z,1.23
2023-03-15T11:54:18.743Z,1.20
2023-03-15T11:57:28.189Z,0.93
2023-03-15T12:00:18.307Z,0.80
2023-03-15T12:02:53.184Z,1.17
2023-03-15T12:05:43.027Z,2.37
2023-03-15T12:08:35.294Z,0.47
2023-03-15T12:11:21.734Z,0.90
2023-03-15T12:14:02.813Z,1.15
2023-03-15T12:16:42.482Z,0.93
2023-03-15T12:19:20.030Z,1.03
2023-03-15T12:21:57.778Z,1.40
2023-03-15T12:24:36.050Z,2.00
2023-03-15T12:27:19.986Z,0.90
2023-03-15T12:30:00.308Z,0.97
2023-03-15T12:32:46.861Z,1.00
2023-03-15T12:35:21.398Z,0.82
2023-03-15T12:37:53.706Z,0.53
2023-03-15T12:40:26.703Z,0.47
2023-03-15T12:43:02.085Z,0.90
2023-03-15T12:45:37.470Z,0.80
2023-03-15T12:48:12.538Z,0.73
2023-03-15T12:50:43.845Z,1.47
2023-03-15T12:53:23.122Z,0.70
2023-03-15T12:56:02.850Z,0.70
2023-03-15T12:58:41.123Z,1.23
2023-03-15T13:01:16.208Z,0.60
2023-03-15T13:03:47.581Z,0.50
2023-03-15T13:06:45.366Z,0.63
2023-03-15T13:09:38.271Z,0.70
2023-03-15T13:12:17.556Z,0.70
2023-03-15T13:15:02.207Z,0.60
2023-03-15T13:17:48.794Z,0.97
2023-03-15T13:20:41.337Z,0.70
2023-03-15T13:23:17.871Z,0.70
2023-03-15T13:25:57.822Z,0.83
2023-03-15T13:28:38.160Z,1.23
2023-03-15T13:31:20.650Z,0.77
2023-03-15T13:33:57.249Z,0.60
2023-03-15T13:36:47.580Z,0.60
2023-03-15T13:39:25.771Z,0.73
2023-03-15T13:42:03.644Z,0.93
2023-03-15T13:44:34.964Z,1.07
2023-03-15T13:47:06.322Z,0.77
2023-03-15T13:49:37.789Z,0.87
2023-03-15T13:52:14.595Z,1.10
2023-03-15T13:54:45.988Z,1.20
2023-03-15T13:57:20.060Z,1.37
2023-03-15T14:00:00.477Z,0.87
2023-03-15T14:02:47.359Z,0.90
2023-03-15T14:05:27.121Z,1.43
2023-03-15T14:08:15.745Z,1.13
2023-03-15T14:11:20.843Z,1.10
2023-03-15T14:13:57.560Z,1.03
2023-03-15T14:16:57.362Z,0.70
2023-03-15T14:19:34.768Z,1.07
2023-03-15T14:22:18.203Z,0.67
2023-03-15T14:24:52.443Z,1.33
2023-03-15T14:27:28.254Z,0.90
2023-03-15T14:30:01.557Z,1.17
2023-03-15T14:32:38.270Z,1.10
2023-03-15T14:35:38.666Z,0.80
2023-03-15T14:38:22.148Z,1.00
2023-03-15T14:40:54.221Z,1.43
2023-03-15T14:43:25.491Z,1.27
2023-03-15T14:45:56.863Z,0.80
2023-03-15T14:48:30.138Z,1.00
2023-03-15T14:51:02.761Z,0.93
2023-03-15T14:53:37.320Z,1.57
2023-03-15T14:56:11.845Z,0.80
2023-03-15T14:58:43.126Z,1.27
2023-03-15T15:01:19.221Z,1.30
2023-03-15T15:03:54.977Z,1.23
2023-03-15T15:06:28.019Z,1.30
2023-03-15T15:09:01.406Z,1.10
2023-03-15T15:11:32.784Z,1.37
2023-03-15T15:14:04.051Z,1.37
2023-03-15T15:16:35.423Z,1.17
2023-03-15T15:19:06.773Z,1.00
2023-03-15T15:21:39.103Z,0.83
2023-03-15T15:24:17.368Z,0.97
2023-03-15T15:26:48.748Z,1.33
2023-03-15T15:29:20.087Z,1.00
2023-03-15T15:31:51.435Z,0.90
2023-03-15T15:34:22.733Z,1.30
2023-03-15T15:36:54.021Z,1.13
2023-03-15T15:39:29.433Z,1.37
2023-03-15T15:42:00.703Z,1.33
2023-03-15T15:44:31.959Z,1.60
2023-03-15T15:47:03.314Z,1.50
2023-03-15T15:49:34.566Z,0.90
2023-03-15T15:52:06.170Z,1.83
2023-03-15T15:54:37.888Z,1.10
2023-03-15T15:57:12.145Z,1.93
2023-03-15T15:59:43.481Z,0.77
2023-03-15T16:02:21.990Z,0.97
2023-03-15T16:04:54.806Z,1.70
2023-03-15T16:07:26.290Z,1.23
2023-03-15T16:09:59.596Z,1.10
2023-03-15T16:12:32.695Z,0.90
2023-03-15T16:15:04.357Z,0.90
2023-03-15T16:17:35.676Z,1.00
2023-03-15T16:20:09.177Z,1.47
2023-03-15T16:22:43.541Z,1.40
2023-03-15T16:25:23.548Z,1.00
2023-03-15T16:27:56.166Z,1.40
2023-03-15T16:30:30.393Z,1.27
2023-03-15T16:33:01.733Z,1.63
2023-03-15T16:35:35.959Z,1.13
2023-03-15T16:38:15.015Z,1.37
2023-03-15T16:40:46.342Z,1.73
2023-03-15T16:43:18.757Z,1.20
2023-03-15T16:45:50.168Z,1.20
2023-03-15T16:48:21.572Z,1.20
2023-03-15T16:50:55.219Z,1.50
2023-03-15T16:53:26.534Z,1.53
2023-03-15T16:55:58.727Z,2.10
2023-03-15T16:58:30.446Z,1.43
2023-03-15T17:01:01.876Z,1.43
2023-03-15T17:03:34.906Z,1.10
2023-03-15T17:06:20.199Z,1.27
2023-03-15T17:09:04.756Z,1.57
2023-03-15T17:11:38.453Z,1.03
2023-03-15T17:14:16.353Z,2.73
2023-03-15T17:16:47.963Z,1.83
2023-03-15T17:19:19.244Z,1.40
2023-03-15T17:21:51.966Z,1.10
2023-03-15T17:24:23.338Z,1.30
2023-03-15T17:26:54.719Z,1.17
2023-03-15T17:29:26.092Z,1.20
2023-03-15T17:31:58.081Z,1.53
2023-03-15T17:34:29.425Z,1.67
2023-03-15T17:37:00.714Z,1.27
2023-03-15T17:39:32.263Z,2.07
2023-03-15T17:42:03.695Z,1.70
2023-03-15T17:44:34.976Z,2.07
2023-03-15T17:47:08.531Z,3.03
2023-03-15T17:49:40.870Z,2.30
2023-03-15T17:52:18.123Z,2.70
2023-03-15T17:54:49.412Z,3.07
2023-03-15T17:57:20.719Z,2.17
2023-03-15T17:59:53.478Z,2.90
2023-03-15T18:02:25.240Z,5.37
2023-03-15T18:04:56.504Z,4.10
2023-03-15T18:07:29.564Z,4.07
2023-03-15T18:10:01.205Z,4.90
2023-03-15T18:12:32.801Z,10.50
2023-03-15T18:15:05.113Z,16.57
2023-03-15T18:17:36.386Z,19.77
2023-03-15T18:20:10.056Z,19.80
2023-03-15T18:22:42.113Z,16.03
2023-03-15T18:25:28.795Z,13.03
2023-03-15T18:28:00.385Z,14.40
2023-03-15T18:30:31.926Z,13.07
2023-03-15T18:33:05.683Z,9.77
2023-03-15T18:35:37.748Z,7.67
2023-03-15T18:38:09.176Z,7.97
2023-03-15T18:40:40.637Z,8.20
2023-03-15T18:43:23.386Z,7.50
2023-03-15T18:45:54.756Z,7.33
2023-03-15T18:48:39.631Z,6.40
2023-03-15T18:51:13.639Z,5.10
2023-03-15T18:53:45.984Z,4.67
2023-03-15T18:56:25.616Z,3.40
2023-03-15T18:58:56.926Z,4.90
2023-03-15T19:01:28.964Z,3.50
2023-03-15T19:04:00.434Z,7.47
2023-03-15T19:06:32.151Z,10.03
2023-03-15T19:09:05.343Z,13.23
2023-03-15T19:11:41.605Z,11.97
2023-03-15T19:14:12.884Z,10.45
2023-03-15T19:16:44.192Z,10.43
2023-03-15T19:19:15.558Z,9.87
2023-03-15T19:21:46.887Z,13.40
2023-03-15T19:24:18.166Z,12.57
2023-03-15T19:26:51.545Z,10.80
2023-03-15T19:29:24.816Z,8.57
2023-03-15T19:31:58.743Z,8.90
2023-03-15T19:34:30.220Z,7.97
2023-03-15T19:37:01.679Z,9.47
2023-03-15T19:39:34.081Z,8.70
2023-03-15T19:42:05.457Z,9.73
2023-03-15T19:44:36.838Z,7.97
2023-03-15T19:47:08.099Z,8.53
2023-03-15T19:49:39.616Z,8.03
2023-03-15T19:52:11.462Z,7.37
2023-03-15T19:54:42.814Z,6.27
2023-03-15T19:57:14.380Z,7.27
2023-03-15T19:59:45.740Z,5.80
2023-03-15T20:02:17.028Z,6.83
2023-03-15T20:04:48.352Z,6.63
2023-03-15T20:07:19.749Z,5.87
2023-03-15T20:09:51.075Z,5.37
2023-03-15T20:12:22.581Z,6.20
2023-03-15T20:14:54.020Z,5.73
2023-03-15T20:17:26.828Z,5.00
2023-03-15T20:19:58.269Z,5.00
2023-03-15T20:22:29.547Z,5.27
2023-03-15T20:25:01.329Z,5.83
2023-03-15T20:27:33.281Z,5.63
2023-03-15T20:30:06.668Z,6.10
2023-03-15T20:32:38.389Z,5.13
2023-03-15T20:35:10.231Z,5.33
2023-03-15T20:37:42.526Z,6.03
2023-03-15T20:40:15.814Z,7.20
2023-03-15T20:42:47.491Z,6.13
2023-03-15T20:45:18.876Z,7.57
2023-03-15T20:47:50.540Z,6.57
2023-03-15T20:50:22.141Z,8.20
2023-03-15T20:52:53.774Z,6.77
2023-03-15T20:55:25.887Z,7.33
2023-03-15T20:57:58.059Z,6.83
2023-03-15T21:00:29.411Z,8.40
2023-03-15T21:03:01.740Z,10.30
2023-03-15T21:05:33.480Z,18.93
2023-03-15T21:08:05.346Z,12.57
2023-03-15T21:10:37.494Z,15.97
2023-03-15T21:13:10.325Z,13.13
2023-03-15T21:15:46.314Z,8.73
2023-03-15T21:18:18.049Z,6.22
2023-03-15T21:21:03.750Z,5.67
2023-03-15T21:23:35.635Z,5.57
2023-03-15T21:26:09.541Z,6.23
2023-03-15T21:28:41.401Z,4.77
2023-03-15T21:31:13.506Z,5.40
2023-03-15T21:33:44.893Z,5.33
2023-03-15T21:36:17.534Z,4.37
2023-03-15T21:38:48.802Z,4.83
2023-03-15T21:41:20.102Z,4.00
2023-03-15T21:43:51.384Z,5.73
2023-03-15T21:46:23.807Z,6.40
2023-03-15T21:48:55.776Z,6.10
2023-03-15T21:51:28.617Z,4.93
2023-03-15T21:54:04.660Z,4.50
2023-03-15T21:56:35.942Z,5.30
2023-03-15T21:59:07.592Z,5.17
2023-03-15T22:01:39.092Z,4.60
2023-03-15T22:04:10.422Z,5.00
2023-03-15T22:06:41.733Z,4.80
2023-03-15T22:09:13.064Z,5.13
2023-03-15T22:11:44.385Z,4.77
2023-03-15T22:14:15.742Z,4.33
2023-03-15T22:16:47.080Z,4.80
2023-03-15T22:19:18.460Z,4.87
2023-03-15T22:21:49.766Z,5.10
2023-03-15T22:24:21.035Z,4.00
2023-03-15T22:26:53.084Z,4.30
2023-03-15T22:29:24.391Z,3.73
2023-03-15T22:31:55.673Z,4.33
2023-03-15T22:34:27.118Z,4.47
2023-03-15T22:36:58.389Z,5.60
2023-03-15T22:39:31.841Z,5.90
2023-03-15T22:42:03.327Z,6.43
2023-03-15T22:44:34.964Z,5.87
2023-03-15T22:47:07.068Z,5.73
2023-03-15T22:49:38.355Z,5.57
2023-03-15T22:52:09.762Z,4.77
2023-03-15T22:54:44.175Z,5.07
2023-03-15T22:57:15.443Z,4.33
2023-03-15T22:59:46.703Z,4.57
2023-03-15T23:02:17.988Z,4.97
2023-03-15T23:04:49.482Z,4.70
2023-03-15T23:07:21.301Z,3.93
2023-03-15T23:09:52.573Z,4.47
2023-03-15T23:12:33.785Z,3.43
2023-03-15T23:15:07.630Z,3.23
2023-03-15T23:17:38.935Z,3.00
2023-03-15T23:20:12.670Z,3.17
2023-03-15T23:22:45.664Z,2.80
2023-03-15T23:25:19.601Z,3.00
2023-03-15T23:27:51.186Z,4.03
2023-03-15T23:30:22.710Z,2.67
2023-03-15T23:32:58.726Z,2.60
2023-03-15T23:35:31.633Z,2.63
2023-03-15T23:38:03.022Z,2.63
2023-03-15T23:40:34.799Z,2.93
2023-03-15T23:43:09.125Z,2.47
2023-03-15T23:45:41.374Z,2.50
2023-03-15T23:48:12.667Z,2.40
2023-03-15T23:50:44.153Z,2.37
2023-03-15T23:53:15.422Z,2.63
2023-03-15T23:55:47.489Z,2.37
2023-03-15T23:58:19.761Z,2.70
